Terminal Aerodrome Forecast
Issued by NWS Tampa Bay Area, FL

Home | Current Version | Previous Version | Text Only | Print | Product List | Glossary On
Versions: 1 2 3 4 5 6 7 8 9 10 11 12 13 14 15
000
FTUS42 KTBW 290536
TAFSRQ
TAF
KSRQ 290536Z 2906/3006 08006KT P6SM FEW250
     FM291400 10009KT P6SM SCT030 SCT250
     FM291700 09007KT P6SM SCT045 SCT250
     FM292100 32007KT P6SM SCT050 SCT250
     FM300100 07007KT P6SM SCT050 SCT250=

USA.gov is the U.S. government's official web portal to all federal, state and local government web resources and services.